Sierra Nevada Aquatic Research Lab (SNARL) Reserve, California Weather observations

Data are for 10 minute period ending at time listed.
 Day   Time   Solar   Ave.   Ave.  Ave.  Vector  Max.   Baro.   Total    
  of    of     Rad.   Air    Rel.  Wind   Wind   Wind  Press.  Precip.   
Year   Day            Temp.  Hum.  Speed  Dir.   Gust                    
2017   (PST)  Kw/m2    F      %     mph   deg.    mph    mb.     in.     
-------------------------------------------------------------------------
  17    2:40   0.00    9.5    59    1.4   288     3.4   784.5    0.00 
  17    2:50   0.00    7.0    66    3.1   297     5.6   784.4    0.00 
  17    3:00   0.00    5.6    64    2.7   282     5.0   784.2    0.00 
  17    3:10   0.00    5.5    66    1.9   226     3.7   784.2    0.00 
  17    3:20   0.00    5.7    65    1.4    38     2.6   784.2    0.00 
  17    3:30   0.00    5.9    60    1.5   234     3.1   784.2    0.00 
  17    3:40   0.00    4.4    64    1.1   283     3.1   784.2    0.00 
  17    3:50   0.00    4.2    67    1.4   281     3.7   784.2    0.00 
  17    4:00   0.00    3.6    67    1.1   231     2.9   784.1    0.00 
  17    4:10   0.00    3.1    66    0.8   195     2.3   784.0    0.00 
  17    4:20   0.00    4.3    65    0.9   162     2.7   784.0    0.00 
  17    4:30   0.00    4.9    66    2.3    88     5.0   784.0    0.00 
  17    4:40   0.00    4.0    70    3.1   103     5.7   784.0    0.00 
  17    4:50   0.00    6.3    68    2.4   110     5.3   784.0    0.00 
  17    5:00   0.00    5.9    64    1.5   114     3.5   784.0    0.00 
  17    5:10   0.00    5.5    70    2.2    93     3.7   783.9    0.00 
  17    5:20   0.00    5.9    65    1.0    84     2.8   784.0    0.00 
  17    5:30   0.00    5.0    64    0.5   181     2.3   784.1    0.00 
  17    5:40   0.00    2.4    70    0.4   176     1.7   784.2    0.00 
  17    5:50   0.00    3.7    70    0.7   226     1.8   784.2    0.00 
  17    6:00   0.00    4.2    68    1.6    92     2.7   784.4    0.00 
  17    6:10   0.00    4.9    72    1.4   357     3.4   784.5    0.00 
  17    6:20   0.00    4.9    67    1.5   309     3.1   784.5    0.00 
  17    6:30   0.00    1.3    72    0.0     0     0.0   784.6    0.00 
  17    6:40   0.00    1.9    70    0.5   202     1.5   784.7    0.00 
  17    6:50   0.00    3.3    75    0.9   276     2.5   784.8    0.00 
  17    7:00   0.00    3.5    75    0.7   279     2.3   784.9    0.00 
  17    7:10   0.00    3.6    73    1.3   321     2.4   785.0    0.00 
  17    7:20   0.00    2.9    72    1.1   290     2.3   785.1    0.00 
  17    7:30   0.01    1.4    71    0.9   247     2.2   785.2    0.00 
  17    7:40   0.01    3.3    70    0.4   230     2.0   785.3    0.00 
  17    7:50   0.01    2.8    75    1.6    77     3.1   785.3    0.00 
  17    8:00   0.08    5.6    69    0.3   350     1.2   785.3    0.00 
  17    8:10   0.15    9.9    56    1.4    88     3.8   785.5    0.00 
  17    8:20   0.18   11.8    55    0.3   228     1.5   785.6    0.00 
  17    8:30   0.21   13.6    52    0.6    29     1.5   785.6    0.00 
  17    8:40   0.24   14.8    50    0.5   162     1.2   785.6    0.00 
  17    8:50   0.27   15.0    52    0.2   242     1.2   785.6    0.00 
  17    9:00   0.30   16.3    50    0.5   215     2.3   785.6    0.00 
  17    9:10   0.33   20.4    44    0.2   117     1.6   785.5    0.00 
  17    9:20   0.36   23.3    39    0.9    95     2.4   785.7    0.00 
  17    9:30   0.38   20.7    44    1.1   202     2.4   785.7    0.00 
  17    9:40   0.41   21.5    44    0.2   216     1.2   785.8    0.00 
  17    9:50   0.43   22.6    44    0.4   256     1.8   785.8    0.00 
  17   10:00   0.45   23.3    45    2.3   104     3.7   785.8    0.00 
  17   10:10   0.47   24.0    42    0.6    98     2.6   785.7    0.00 
  17   10:20   0.50   23.5    44    1.5   248     3.2   785.7    0.00 
  17   10:30   0.51   23.0    46    2.7   226     3.8   785.7    0.00 
  17   10:40   0.53   26.7    41    2.0   284     4.6   785.6    0.00 
  17   10:50   0.54   26.7    45    2.7   248     3.9   785.6    0.00 
  17   11:00   0.56   25.3    50    4.8   318     6.9   785.6    0.00 
  17   11:10   0.57   26.2    48    2.2   331     5.7   785.7    0.00 
  17   11:20   0.58   27.7    45    2.5   322     4.5   785.5    0.00 
  17   11:30   0.59   29.5    45    1.2   354     2.6   785.3    0.00 
  17   11:40   0.59   30.1    42    1.6    72     3.4   785.1    0.00 
  17   11:50   0.60   26.6    50    1.2   116     3.4   785.1    0.00 
  17   12:00   0.60   29.7    46    0.6   200     2.4   784.8    0.00 
  17   12:10   0.60   30.2    45    2.7    58     4.9   784.7    0.00 
  17   12:20   0.59   24.1    50    4.3    89     6.4   784.7    0.00 
  17   12:30   0.59   24.0    45    4.5    91     6.2   784.5    0.00 
  17   12:40   0.59   25.6    43    3.4   122     5.2   784.3    0.00 
  17   12:50   0.58   29.4    37    0.8   219     3.2   784.3    0.00 
  17   13:00   0.56   29.7    39    3.0   217     4.6   784.4    0.00 
  17   13:10   0.55   29.0    43    3.0   211     4.6   784.3    0.00 
  17   13:20   0.53   32.5    33    1.3   164     2.9   784.3    0.00 
  17   13:30   0.46   34.9    32    0.4   233     1.8   784.2    0.00 
  17   13:40   0.32   37.4    28    0.4   146     2.2   784.1    0.00 
  17   13:50   0.28   31.1    43    1.2   284     2.9   784.0    0.00 
  17   14:00   0.35   30.8    42    1.0   197     3.7   784.0    0.00 
  17   14:10   0.32   30.5    42    3.2   258     7.7   783.7    0.00 
  17   14:20   0.31   31.6    36    5.5   316    11.5   783.9    0.00 
  17   14:30   0.29   31.8    44    5.3   278     9.7   784.4    0.00 
  17   14:40   0.21   30.6    42    5.5   209     8.4   784.5    0.00 
  17   14:50   0.19   33.7    36    5.0   261     9.1   784.6    0.00 
  17   15:00   0.19   35.1    38    2.0   253     4.9   784.6    0.00 
  17   15:10   0.20   35.5    41    3.4   252     8.2   784.6    0.00 
  17   15:20   0.19   32.8    43    3.8    39     6.6   784.7    0.00 
  17   15:30   0.17   26.0    55    4.9    42     8.5   784.6    0.00 
  17   15:40   0.13   24.9    56    1.6    57     3.3   784.8    0.00 
  17   15:50   0.10   23.7    59    1.9   226     5.4   784.9    0.00 
  17   16:00   0.08   24.3    53    2.6   107     6.1   784.7    0.00 
  17   16:10   0.08   23.5    57    3.2   236     5.3   784.4    0.00 
  17   16:20   0.07   22.5    60    4.6   283     6.6   784.3    0.00 
  17   16:30   0.06   25.4    53    0.8   285     3.3   784.4    0.00 
  17   16:40   0.04   24.2    57    1.8   241     3.7   784.7    0.00 
  17   16:50   0.02   22.8    55    1.2   240     2.4   785.0    0.00 
  17   17:00   0.01   20.2    59    1.7   219     3.3   784.9    0.00 
  17   17:10   0.00   19.9    57    2.8   245     4.8   784.9    0.00 
  17   17:20   0.00   19.6    58    2.5   241     4.2   784.9    0.00 
  17   17:30   0.00   19.2    61    4.0   319     8.1   785.0    0.00 
  17   17:40   0.00   20.6    59    1.5   314     3.3   784.9    0.00 
  17   17:50   0.00   19.9    63    4.3   311     7.2   784.9    0.00 
  17   18:00   0.00   19.2    63    2.8   312     6.9   784.9    0.00 
  17   18:10   0.00   18.4    63    1.9   307     6.1   784.9    0.00 
  17   18:20   0.00   16.7    66    0.7    22     1.9   784.9    0.00 
  17   18:30   0.00   15.2    67    1.9    96     4.6   784.9    0.00 
  17   18:40   0.00   16.5    66    1.3   300     2.4   785.0    0.00 
  17   18:50   0.00   18.1    62    2.0   274     3.5   784.9    0.00 
  17   19:00   0.00   17.7    60    3.0   249     4.0   784.8    0.00 
  17   19:10   0.00   17.9    61    1.5   329     2.9   784.8    0.00 
  17   19:20   0.00   18.3    62    2.4   292     6.1   785.0    0.00 
  17   19:30   0.00   18.5    65    1.7   293     3.9   785.0    0.00 
  17   19:40   0.00   17.4    67    2.1   232     3.9   784.8    0.00 
  17   19:50   0.00   15.2    72    3.6   315     6.4   784.9    0.00 
  17   20:00   0.00   16.2    71    2.4   296     5.0   784.8    0.00 
  17   20:10   0.00   16.4    71    1.2   116     2.6   784.8    0.00 
  17   20:20   0.00   15.3    67    1.1   217     2.3   784.8    0.00 
  17   20:30   0.00   14.7    71    1.1   316     4.1   784.8    0.00 
  17   20:40   0.00   15.4    70    1.1   344     3.0   784.9    0.00 
  17   20:50   0.00   12.8    70    2.2   254     3.4   784.8    0.00 
  17   21:00   0.00   12.5    74    1.3   182     3.1   784.8    0.00 
  17   21:10   0.00   14.9    71    1.7   331     4.2   784.7    0.00 
  17   21:20   0.00   12.8    70    0.3   249     1.3   784.8    0.00 
  17   21:30   0.00   12.4    69    0.9   234     2.3   784.8    0.00 
  17   21:40   0.00   10.5    75    0.8   198     1.4   784.8    0.00 
  17   21:50   0.00   13.1    71    2.2   243     3.5   784.8    0.00 
  17   22:00   0.00   14.2    70    1.2   275     3.0   784.8    0.00 
  17   22:10   0.00   13.5    76    2.7   308     5.3   784.9    0.00 
  17   22:20   0.00   13.9    78    2.7   329     6.8   784.9    0.00 
  17   22:30   0.00   13.6    76    2.2   332     4.1   784.8    0.00 
  17   22:40   0.00   11.8    79    1.9   352     4.1   784.8    0.00 
  17   22:50   0.00    9.8    81    1.5   304     3.6   784.8    0.00 
  17   23:00   0.00    9.1    85    2.9   298     6.0   784.6    0.00 
  17   23:10   0.00   11.7    82    3.7   299     8.0   784.7    0.00 
  17   23:20   0.00   12.8    77    2.7   321     7.0   784.6    0.00 
  17   23:30   0.00   11.5    78    2.5    16     6.5   784.5    0.00 
  17   23:40   0.00   13.7    78    3.2   352     6.5   784.5    0.00 
  17   23:50   0.00    9.5    77    2.8    51     8.6   784.6    0.00 
  18    0:00   0.00    7.8    84    2.8   248     6.1   784.5    0.00 
  18    0:10   0.00    9.4    84    2.4   237     5.6   784.3    0.00 
  18    0:20   0.00   11.9    81    2.7   320     5.8   784.2    0.00 
  18    0:30   0.00   14.0    76    3.5   273     6.4   784.3    0.00 
  18    0:40   0.00   14.5    73    2.4   282     4.7   784.2    0.00 
  18    0:50   0.00   12.8    76    5.2   316     8.6   784.3    0.00 
  18    1:00   0.00   13.3    77    2.4   313     6.9   784.4    0.00 
  18    1:10   0.00   13.9    77    1.5   102     3.5   784.3    0.00 
  18    1:20   0.00   13.9    78    2.7   271     5.6   784.2    0.00 
  18    1:30   0.00   15.7    75    3.9   187     5.8   784.3    0.00 
  18    1:40   0.00   17.3    73    2.0   269     4.9   784.2    0.00 
  18    1:50   0.00   17.1    73    3.0   265     5.5   784.3    0.00 
  18    2:00   0.00   17.0    73    1.6   233     4.9   784.3    0.00 
  18    2:10   0.00   17.2    74    2.9   312     6.3   784.2    0.00 
  18    2:20   0.00   18.3    70    2.0    47     4.0   784.2    0.00 
  18    2:30   0.00   17.1    71    3.2    24     6.2   784.2    0.00 

Return to SNARL Reserve graphs page.


Western Regional Climate Center,wrcc@dri.edu